Flight Track Log - Related Links

Times and Time Zones

All times are in EDT time to prevent confusion due to time zone crossing. See the SWA378 flight status page for this flight to view local times or setup timezone preferences in your user account.

Time Position Orientation Groundspeed Altitude Reporting Facility
EDT Latitude Longitude Course Direction KTS MPH feet Rate Location/Type
Thu 11:42:20 AM 37.4000 -121.9667 138° Southeast 182 209 2,500  Level Northern TRACON
Thu 11:43:20 AM 37.4500 -121.9500 15° North 223 257 4,900 1,250 Climbing Northern TRACON
Thu 11:44:20 AM 37.4167 -121.8833 122° Southeast 224 258 5,000 1,200 Climbing Northern TRACON
Thu 11:45:20 AM 37.3667 -121.8333 142° Southeast 230 265 7,300 2,688 Climbing Northern TRACON
Thu 11:46:25 AM 37.3122 -121.7686 137° Southeast 251 289 10,600 3,095 Climbing Oakland Center
Thu 11:47:00 AM 36.9976 -121.5331 138° Southeast  Level Estimated
Thu 11:47:26 AM 37.2453 -121.6919 138° Southeast 320 368 13,800  Level Oakland Center
Thu 11:48:28 AM 37.1742 -121.6119 138° Southeast 341 392 17,400 3,317 Climbing Oakland Center
Thu 11:49:29 AM 37.0978 -121.5247 138° Southeast 367 422 20,600 3,000 Climbing Oakland Center
Thu 11:51:32 AM 36.9314 -121.3456 139° Southeast 393 452 26,600 2,739 Climbing Oakland Center
Thu 11:52:33 AM 36.8458 -121.2533 139° Southeast 404 465 29,000 2,361 Climbing Oakland Center
Thu 11:53:34 AM 36.7447 -121.1456 139° Southeast 414 476 31,400 2,098 Climbing Oakland Center
Thu 11:54:36 AM 36.6550 -121.0503 140° Southeast 423 487 33,300 1,659 Climbing Oakland Center
Thu 11:55:37 AM 36.5636 -120.9494 138° Southeast 436 502 34,800 1,317 Climbing Oakland Center
Thu 11:56:39 AM 36.4689 -120.8481 139° Southeast 447 514 36,000 1,304 Climbing Oakland Center
Thu 11:58:41 AM 36.2728 -120.6411 140° Southeast 462 532 38,800 848 Climbing Oakland Center
Thu 11:59:43 AM 36.1700 -120.5422 142° Southeast 466 536 38,600 -585 Descending Oakland Center
Thu 12:00:44 PM 36.0692 -120.4364 140° Southeast 479 551 37,600 -780 Descending Oakland Center
Thu 12:01:46 PM 35.9706 -120.3431 143° Southeast 443 510 37,000 -293 Descending Oakland Center
Thu 12:02:47 PM 35.8711 -120.2428 141° Southeast 456 525 37,000  Level Oakland Center
Thu 12:03:49 PM 35.7511 -120.1256 142° Southeast 455 524 37,000  Level Oakland Center
Thu 12:04:50 PM 35.6514 -120.0275 141° Southeast 455 524 37,000  Level Oakland Center
Thu 12:05:51 PM 35.5525 -119.9300 141° Southeast 453 521 37,000  Level Oakland Center
Thu 12:06:53 PM 35.4528 -119.8331 142° Southeast 453 521 37,000  Level Oakland Center
Thu 12:07:54 PM 35.3542 -119.7347 141° Southeast 454 522 37,000  Level Oakland Center
Thu 12:08:09 PM 35.3342 -119.7167 144° Southeast 452 520 37,000  Level Los Center
Thu 12:09:11 PM 35.2350 -119.6222 142° Southeast 451 519 37,000 -435 Level Los Center
Thu 12:10:13 PM 35.1308 -119.5350 146° Southeast 452 520 36,100 -1,887 Descending Los Center
Thu 12:11:15 PM 35.0286 -119.4475 145° Southeast 448 516 33,100 -3,097 Descending Los Center
Thu 12:12:17 PM 34.9056 -119.3417 145° Southeast 451 519 29,700 -2,855 Descending Los Center
Thu 12:13:19 PM 34.8042 -119.2564 145° Southeast 444 511 27,200 -2,323 Descending Los Center
Thu 12:14:21 PM 34.7072 -119.1742 145° Southeast 427 491 24,900 -2,177 Descending Los Center
Thu 12:15:23 PM 34.6158 -119.0972 145° Southeast 418 481 22,700 -2,129 Descending Los Center
Thu 12:16:25 PM 34.5244 -119.0206 145° Southeast 398 458 20,500 -2,371 Descending Los Center
Thu 12:17:27 PM 34.4178 -118.9333 146° Southeast 382 440 17,800 -2,371 Descending Los Center
Thu 12:18:29 PM 34.3294 -118.8711 150° Southeast 367 422 15,600 -2,129 Descending Los Center
Thu 12:19:31 PM 34.2311 -118.8350 163° South 367 422 13,400 -2,081 Descending Los Center
Thu 12:20:33 PM 34.1369 -118.8003 163° South 357 411 11,300 -1,645 Descending Los Center
Thu 12:21:35 PM 34.0561 -118.7469 151° Southeast 296 341 10,000 -629 Descending Los Center
Thu 12:22:37 PM 34.0394 -118.6481 101° East 280 322 10,000 -871 Level Los Center
Thu 12:23:39 PM 34.0250 -118.5553 101° East 282 325 8,200 -1,500 Descending Los Center
Thu 12:24:41 PM 34.0114 -118.4572 99° East 276 318 6,900 -1,258 Descending Los Center
Thu 12:25:43 PM 34.0256 -118.3758 78° East 271 312 5,600 -1,403 Descending Los Center
Thu 12:26:45 PM 34.0367 -118.2861 81° East 270 311 4,000 -1,152 Descending Los Center
Thu 12:27:48 PM 34.0492 -118.1997 80° East 265 305 3,200 -624 Descending Los Center
Thu 12:28:50 PM 34.0469 -118.1308 92° East 231 266 2,700 -484 Descending Los Center
Thu 12:29:52 PM 33.9883 -118.1456 192° South 197 227 2,200 -242 Descending Los Center
Thu 12:30:54 PM 33.9731 -118.2044 253° West 190 219 2,200  Level Los Center
Thu 12:31:56 PM 33.9661 -118.2647 262° West 187 215 2,200 -339 Level Los Center
Thu 12:32:58 PM 33.9603 -118.3186 263° West 176 203 1,500 -677 Descending Los Center
Thu 12:34:00 PM 33.9569 -118.3661 265° West 159 183 800 -629 Descending Los Center
Thu 12:35:02 PM 33.9519 -118.4158 263° West 149 171 200 -581 Descending Los Center

Login

Don't have an account? Register now (free) for customized features, flight alerts, and more!